Time;durP1;ratioP1;P1;durP2;ratioP2;P2;SDS_P1;SDS_P2;PMS_P1;PMS_P2;Temp;Humidity;BMP_temperature;BMP_pressure;BME280_temperature;BME280_humidity;BME280_pressure;Samples;Min_cycle;Max_cycle;Signal;HPM_P1;HPM_P2
2023/08/24 00:00:49;;;;;;;11.27;7.43;;;;;;;20.30;77.08;96161.88;2066435;28;20058;-57
2023/08/24 00:01:50;;;;;;;10.77;7.40;;;;;;;20.28;76.74;96165.44;2065806;28;20394;-57
2023/08/24 00:02:51;;;;;;;10.50;7.35;;;;;;;20.25;76.75;96160.44;2066522;28;20054;-56
2023/08/24 00:03:52;;;;;;;8.27;7.03;;;;;;;20.23;76.77;96162.38;2066437;28;20050;-57
2023/08/24 00:04:53;;;;;;;11.30;7.85;;;;;;;20.23;76.70;96164.16;2066185;28;20061;-57
2023/08/24 00:05:55;;;;;;;9.00;6.95;;;;;;;20.21;76.67;96172.22;2065921;28;20077;-57
2023/08/24 00:06:56;;;;;;;10.75;7.50;;;;;;;20.21;76.55;96168.75;2065916;28;20066;-57
2023/08/24 00:07:57;;;;;;;10.13;7.78;;;;;;;20.19;76.72;96165.41;2065941;28;20487;-56
2023/08/24 00:08:59;;;;;;;10.90;7.40;;;;;;;20.18;76.91;96172.47;2066367;28;20046;-57
2023/08/24 00:10:00;;;;;;;9.80;7.47;;;;;;;20.10;77.24;96161.72;2066171;28;20058;-57
2023/08/24 00:11:01;;;;;;;9.90;7.30;;;;;;;20.12;77.49;96169.50;2065982;28;20042;-57
2023/08/24 00:12:03;;;;;;;11.20;7.60;;;;;;;20.08;77.89;96160.19;2066228;28;20050;-57
2023/08/24 00:13:04;;;;;;;11.85;7.10;;;;;;;20.05;78.06;96164.75;2065551;28;20058;-57
2023/08/24 00:14:05;;;;;;;11.63;7.18;;;;;;;20.01;78.03;96159.84;2065426;28;20050;-57
2023/08/24 00:15:08;;;;;;;11.55;7.78;;;;;;;19.95;78.44;96158.53;2066395;28;20091;-57
2023/08/24 00:16:09;;;;;;;10.88;7.43;;;;;;;19.97;78.86;96166.34;2065072;28;20545;-57
2023/08/24 00:17:11;;;;;;;8.43;7.30;;;;;;;19.97;78.82;96161.91;2065912;28;20150;-56
2023/08/24 00:18:12;;;;;;;8.73;7.30;;;;;;;19.94;78.85;96158.66;2066026;28;20073;-57
2023/08/24 00:19:13;;;;;;;9.18;7.45;;;;;;;19.95;78.81;96165.63;2065584;28;20051;-57
2023/08/24 00:20:14;;;;;;;10.43;6.90;;;;;;;19.92;78.85;96160.59;2066229;28;20050;-57
2023/08/24 00:21:22;;;;;;;8.90;6.82;;;;;;;19.88;79.04;96162.63;2065949;28;20058;-57
2023/08/24 00:22:23;;;;;;;15.45;7.28;;;;;;;19.89;80.04;96161.69;2066160;28;20061;-57
2023/08/24 00:23:25;;;;;;;17.20;8.20;;;;;;;19.81;79.39;96151.78;2066007;28;20077;-57
2023/08/24 00:24:26;;;;;;;15.60;8.15;;;;;;;19.85;79.35;96162.88;2066240;28;20050;-57
2023/08/24 00:25:27;;;;;;;14.82;7.20;;;;;;;19.82;79.27;96157.88;2065679;28;20084;-57
2023/08/24 00:26:28;;;;;;;12.70;7.50;;;;;;;19.81;79.68;96161.47;2065254;28;20054;-57
2023/08/24 00:27:29;;;;;;;10.18;7.55;;;;;;;19.77;79.92;96160.03;2066066;28;20058;-57
2023/08/24 00:28:30;;;;;;;9.93;7.50;;;;;;;19.76;79.97;96159.22;2065444;28;20490;-57
2023/08/24 00:29:31;;;;;;;17.45;7.70;;;;;;;19.75;79.92;96159.31;2065515;28;20055;-57
2023/08/24 00:30:33;;;;;;;11.60;7.68;;;;;;;19.74;80.88;96158.50;2057175;28;20058;-56
2023/08/24 00:31:34;;;;;;;10.02;7.35;;;;;;;19.77;80.45;96158.25;2057404;28;20059;-57
2023/08/24 00:32:35;;;;;;;13.25;7.60;;;;;;;19.76;80.30;96159.22;2066000;28;20050;-57
2023/08/24 00:33:36;;;;;;;10.80;7.65;;;;;;;19.74;80.09;96160.31;2057732;28;20507;-57
2023/08/24 00:34:37;;;;;;;14.38;7.28;;;;;;;19.71;80.21;96152.66;2057392;28;20066;-57
2023/08/24 00:35:38;;;;;;;12.10;7.35;;;;;;;19.64;80.37;96151.44;2057108;28;20051;-57
2023/08/24 00:36:39;;;;;;;14.32;7.10;;;;;;;19.66;80.39;96158.28;2049502;29;20059;-57
2023/08/24 00:37:41;;;;;;;14.82;7.32;;;;;;;19.58;80.60;96145.69;2049438;28;20063;-57
2023/08/24 00:38:43;;;;;;;14.20;8.15;;;;;;;19.60;80.46;96154.31;2057515;28;20051;-57
2023/08/24 00:39:44;;;;;;;14.90;7.32;;;;;;;19.58;80.80;96150.97;2065535;28;20061;-57
2023/08/24 00:40:45;;;;;;;12.23;7.53;;;;;;;19.56;80.76;96152.06;2057671;28;20579;-57
2023/08/24 00:41:46;;;;;;;11.38;7.68;;;;;;;19.56;81.27;96152.06;2057524;28;20058;-57
2023/08/24 00:42:49;;;;;;;9.43;7.72;;;;;;;19.54;81.15;96148.69;2065616;28;20062;-57
2023/08/24 00:43:50;;;;;;;10.68;7.63;;;;;;;19.51;81.34;96141.03;2066418;28;20054;-57
2023/08/24 00:44:51;;;;;;;12.15;7.07;;;;;;;19.52;81.99;96148.84;2056796;28;20077;-57
2023/08/24 00:45:53;;;;;;;15.35;8.35;;;;;;;19.54;82.14;96143.44;2057462;28;20538;-57
2023/08/24 00:46:54;;;;;;;12.55;7.75;;;;;;;19.55;81.94;96145.13;2033552;29;20056;-57
2023/08/24 00:47:55;;;;;;;12.18;7.80;;;;;;;19.56;82.03;96144.16;2033332;29;20067;-57
2023/08/24 00:48:59;;;;;;;12.75;7.60;;;;;;;19.54;81.78;96139.03;2048736;28;20161;-57
2023/08/24 00:50:00;;;;;;;14.35;7.78;;;;;;;19.51;81.49;96135.78;2049657;28;20550;-57
2023/08/24 00:51:01;;;;;;;12.82;7.50;;;;;;;19.59;81.75;96147.38;2049424;29;20055;-57
2023/08/24 00:52:02;;;;;;;14.95;7.55;;;;;;;19.58;81.83;96150.97;2057410;28;20054;-57
2023/08/24 00:53:04;;;;;;;13.68;7.32;;;;;;;19.57;82.04;96148.47;2048967;29;20051;-57
2023/08/24 00:54:05;;;;;;;10.13;7.53;;;;;;;19.53;82.24;96150.50;2049360;28;20077;-57
2023/08/24 00:55:06;;;;;;;12.38;7.85;;;;;;;19.43;82.38;96140.81;2057226;28;20487;-57
2023/08/24 00:56:07;;;;;;;15.10;8.13;;;;;;;19.45;82.46;96146.81;2049298;28;20047;-57
2023/08/24 00:57:09;;;;;;;12.30;7.43;;;;;;;19.42;82.26;96147.91;2057393;28;20526;-57
2023/08/24 00:58:10;;;;;;;11.73;7.43;;;;;;;19.43;82.37;96152.19;2057293;28;20115;-56
2023/08/24 00:59:11;;;;;;;11.30;8.27;;;;;;;19.46;82.12;96149.34;2048716;28;20107;-56
2023/08/24 01:00:13;;;;;;;14.85;8.10;;;;;;;19.47;81.92;96148.38;2057375;28;20438;-57
2023/08/24 01:01:14;;;;;;;12.85;7.43;;;;;;;19.50;81.83;96142.84;2065915;28;20042;-57
2023/08/24 01:02:16;;;;;;;9.55;7.60;;;;;;;19.49;82.02;96148.25;2057046;28;20059;-57
2023/08/24 01:03:17;;;;;;;14.15;7.82;;;;;;;19.46;82.05;96151.97;2048969;28;20055;-57
2023/08/24 01:04:18;;;;;;;13.00;7.97;;;;;;;19.42;82.30;96147.91;2057187;28;20538;-57
2023/08/24 01:05:19;;;;;;;14.90;7.82;;;;;;;19.37;82.12;96147.44;2065240;28;20056;-56
2023/08/24 01:06:20;;;;;;;12.88;7.85;;;;;;;19.31;81.71;96147.94;2065855;28;20062;-56
2023/08/24 01:07:21;;;;;;;13.45;7.85;;;;;;;19.27;81.78;96138.59;2065788;28;20487;-57
2023/08/24 01:08:23;;;;;;;11.27;7.35;;;;;;;19.29;81.87;96150.66;2065257;28;20065;-57
2023/08/24 01:09:24;;;;;;;9.73;8.45;;;;;;;19.28;82.34;96151.63;2056900;28;20525;-56
2023/08/24 01:10:25;;;;;;;10.82;7.43;;;;;;;19.25;82.40;96148.41;2049455;28;20058;-56
2023/08/24 01:11:41;;;;;;;13.43;7.80;;;;;;;19.16;82.35;96142.94;2041215;29;20059;-57
2023/08/24 01:12:57;;;;;;;11.98;8.40;;;;;;;19.18;82.90;96142.78;2043389;29;20413;-57
2023/08/24 01:14:09;;;;;;;17.08;8.25;;;;;;;19.16;82.81;96145.56;2052787;28;20059;-57
2023/08/24 01:15:17;;;;;;;14.25;8.25;;;;;;;19.15;82.61;96143.03;2049266;29;20066;-57
2023/08/24 01:16:27;;;;;;;11.25;7.78;;;;;;;19.17;83.29;96146.41;2043458;28;20059;-56
2023/08/24 01:17:29;;;;;;;12.13;8.02;;;;;;;19.17;83.50;96147.22;2050679;28;20058;-57
2023/08/24 01:18:30;;;;;;;11.98;8.02;;;;;;;19.15;83.41;96149.13;2042173;29;20052;-57
2023/08/24 01:19:36;;;;;;;11.88;7.95;;;;;;;19.18;83.67;96148.88;2033578;29;20489;-57
2023/08/24 01:20:38;;;;;;;9.88;8.07;;;;;;;19.15;83.68;96149.13;2042756;28;20059;-57
2023/08/24 01:21:39;;;;;;;11.35;7.82;;;;;;;19.15;83.59;96148.31;2041277;29;20524;-56
2023/08/24 01:22:57;;;;;;;9.73;7.68;;;;;;;19.17;83.88;96149.84;2041004;28;20066;-56
2023/08/24 01:24:13;;;;;;;11.10;7.90;;;;;;;19.18;83.58;96148.88;2059621;28;20538;-57
2023/08/24 01:25:24;;;;;;;11.57;7.57;;;;;;;19.16;83.89;96148.19;2056892;28;20055;-57
2023/08/24 01:26:25;;;;;;;12.50;7.80;;;;;;;19.14;83.88;96152.72;2050665;28;20491;-57
2023/08/24 01:27:26;;;;;;;11.50;7.97;;;;;;;19.12;83.79;96154.66;2041358;29;20058;-57
2023/08/24 01:28:27;;;;;;;11.95;8.43;;;;;;;19.07;84.03;96148.91;2049323;28;20058;-57
2023/08/24 01:29:28;;;;;;;12.27;7.93;;;;;;;19.06;84.30;96149.88;2064838;28;20065;-57
2023/08/24 01:30:30;;;;;;;16.08;9.30;;;;;;;19.05;84.30;96153.44;2057062;28;20057;-57
2023/08/24 01:31:32;;;;;;;15.38;8.82;;;;;;;19.02;84.48;96151.06;2049351;28;20066;-57
2023/08/24 01:32:33;;;;;;;13.07;9.48;;;;;;;19.01;84.59;96151.19;2057433;28;20062;-57
2023/08/24 01:33:34;;;;;;;11.52;8.68;;;;;;;18.99;84.69;96150.47;2065620;28;20050;-57
2023/08/24 01:34:38;;;;;;;12.55;9.20;;;;;;;18.97;84.49;96150.56;2065653;28;20098;-57
2023/08/24 01:35:39;;;;;;;14.13;9.13;;;;;;;18.95;84.59;96147.22;2065083;28;20486;-57
2023/08/24 01:36:41;;;;;;;10.98;9.02;;;;;;;18.95;84.87;96150.72;2064946;28;20062;-57
2023/08/24 01:37:42;;;;;;;11.25;8.55;;;;;;;18.94;84.96;96150.81;2057199;28;20077;-56
2023/08/24 01:38:43;;;;;;;12.50;8.43;;;;;;;18.93;84.85;96150.00;2048648;29;20103;-57
2023/08/24 01:39:54;;;;;;;9.80;8.75;;;;;;;18.93;85.13;96141.28;2048861;28;20066;-57
2023/08/24 01:41:02;;;;;;;13.77;8.30;;;;;;;18.89;85.44;96145.06;2049200;29;20147;-57
2023/08/24 01:42:03;;;;;;;13.00;9.50;;;;;;;18.86;85.19;96143.53;2035515;29;20044;-57
2023/08/24 01:43:05;;;;;;;10.45;7.93;;;;;;;18.86;85.48;96137.44;2049490;28;20062;-57
2023/08/24 01:44:07;;;;;;;12.63;8.55;;;;;;;18.88;85.69;96146.06;2041339;28;20070;-57
2023/08/24 01:45:08;;;;;;;13.52;8.93;;;;;;;18.87;85.78;96147.84;2048860;29;20422;-57
2023/08/24 01:46:09;;;;;;;12.75;9.27;;;;;;;18.87;85.64;96142.59;2025645;29;20486;-57
2023/08/24 01:47:11;;;;;;;12.23;9.00;;;;;;;18.85;85.63;96143.66;2040521;29;20047;-56
2023/08/24 01:48:12;;;;;;;12.25;8.25;;;;;;;18.84;86.26;96141.97;2065781;28;20050;-57
2023/08/24 01:49:13;;;;;;;11.07;8.63;;;;;;;18.80;86.23;96146.66;2065188;28;20518;-57
2023/08/24 01:50:15;;;;;;;10.10;8.68;;;;;;;18.79;86.49;96141.47;2056950;28;20509;-57
2023/08/24 01:51:16;;;;;;;12.27;9.50;;;;;;;18.78;86.67;96142.44;2056757;28;20055;-57
2023/08/24 01:52:17;;;;;;;11.75;9.15;;;;;;;18.77;86.73;96140.78;2048578;29;20121;-57
2023/08/24 01:53:18;;;;;;;14.38;9.55;;;;;;;18.76;86.36;96142.56;2049015;28;20085;-57
2023/08/24 01:54:19;;;;;;;11.77;9.32;;;;;;;18.74;86.63;96141.84;2056837;28;20051;-56
2023/08/24 01:55:20;;;;;;;15.48;9.60;;;;;;;18.73;86.82;96143.59;2064664;28;20050;-56
2023/08/24 01:56:21;;;;;;;14.57;9.40;;;;;;;18.73;86.53;96138.34;2065730;28;20050;-56
2023/08/24 01:57:23;;;;;;;14.50;10.20;;;;;;;18.72;86.55;96138.47;2064401;28;20062;-56
2023/08/24 01:58:24;;;;;;;12.23;8.82;;;;;;;18.82;87.34;96135.97;2056316;28;20051;-56
2023/08/24 01:59:25;;;;;;;14.32;9.10;;;;;;;18.82;87.38;96139.47;2056863;28;20057;-56
2023/08/24 02:00:26;;;;;;;13.10;9.43;;;;;;;18.84;87.36;96134.06;2057030;28;20098;-57
2023/08/24 02:01:27;;;;;;;10.35;9.05;;;;;;;18.78;86.87;96129.31;2056474;28;20508;-56
2023/08/24 02:02:28;;;;;;;12.00;8.75;;;;;;;18.83;86.39;96138.50;2064932;28;20387;-56
2023/08/24 02:03:29;;;;;;;11.80;8.43;;;;;;;18.83;86.84;96130.63;2057139;28;20526;-56
2023/08/24 02:04:31;;;;;;;10.18;8.57;;;;;;;18.85;86.83;96135.78;2048883;29;20051;-56
2023/08/24 02:05:32;;;;;;;11.27;9.02;;;;;;;18.84;86.67;96134.06;2048645;28;20063;-56
2023/08/24 02:06:33;;;;;;;12.00;9.65;;;;;;;18.77;86.65;96130.28;2056326;28;20059;-56
2023/08/24 02:07:35;;;;;;;12.05;9.50;;;;;;;18.73;87.17;96127.81;2065187;28;20058;-57
2023/08/24 02:08:38;;;;;;;13.10;8.70;;;;;;;18.71;87.29;96124.50;2056719;28;20055;-56
2023/08/24 02:09:39;;;;;;;12.20;8.48;;;;;;;18.70;87.12;96125.44;2056089;28;20078;-56
2023/08/24 02:10:40;;;;;;;15.57;8.45;;;;;;;18.75;87.09;96119.03;2064959;28;20061;-56
2023/08/24 02:11:41;;;;;;;11.13;8.90;;;;;;;18.76;86.50;96126.78;2065476;28;20054;-58
2023/08/24 02:12:42;;;;;;;13.30;8.70;;;;;;;18.73;86.69;96125.19;2065475;28;20050;-56
2023/08/24 02:13:43;;;;;;;11.70;8.90;;;;;;;18.71;86.42;96113.09;2056900;28;20541;-56
2023/08/24 02:14:45;;;;;;;11.40;8.88;;;;;;;18.80;87.33;96124.75;2056801;28;20057;-56
2023/08/24 02:15:46;;;;;;;10.50;9.07;;;;;;;18.81;86.31;96116.72;2064882;28;20073;-59
2023/08/24 02:16:48;;;;;;;13.18;9.05;;;;;;;18.78;86.50;96113.53;2065605;28;20050;-57
2023/08/24 02:17:49;;;;;;;12.05;9.35;;;;;;;18.70;86.75;96111.44;2065533;28;20062;-57
2023/08/24 02:18:51;;;;;;;11.27;9.00;;;;;;;18.67;87.16;96111.69;2064763;28;20054;-57
2023/08/24 02:19:52;;;;;;;14.18;9.35;;;;;;;18.58;87.24;96108.00;2065542;28;20066;-57
2023/08/24 02:20:53;;;;;;;10.00;8.57;;;;;;;18.62;87.47;96119.09;2065021;28;20057;-57
2023/08/24 02:21:54;;;;;;;10.63;9.10;;;;;;;18.59;87.48;96109.66;2064893;28;20054;-57
2023/08/24 02:22:57;;;;;;;12.13;9.57;;;;;;;18.57;87.80;96106.28;2065545;28;20058;-57
2023/08/24 02:23:59;;;;;;;13.30;10.88;;;;;;;18.58;87.79;96102.72;2065612;28;20051;-57
2023/08/24 02:25:01;;;;;;;14.13;10.98;;;;;;;18.57;87.74;96103.66;2065465;28;20054;-57
2023/08/24 02:26:03;;;;;;;15.18;11.52;;;;;;;18.60;88.14;96100.78;2065469;28;20054;-57
2023/08/24 02:27:04;;;;;;;19.55;11.23;;;;;;;18.57;87.94;96098.41;2056243;28;20054;-57
2023/08/24 02:28:05;;;;;;;17.42;14.15;;;;;;;18.62;87.77;96101.53;2056787;28;20051;-57
2023/08/24 02:29:07;;;;;;;17.35;14.52;;;;;;;18.63;88.03;96105.84;2056150;28;20046;-57
2023/08/24 02:30:08;;;;;;;21.75;14.30;;;;;;;18.64;87.81;96104.88;2065074;28;20402;-57
2023/08/24 02:31:09;;;;;;;17.30;13.80;;;;;;;18.64;88.10;96104.03;2064752;28;20050;-57
2023/08/24 02:32:10;;;;;;;16.65;13.77;;;;;;;18.63;87.43;96104.97;2064269;28;20062;-57
2023/08/24 02:33:11;;;;;;;17.17;13.98;;;;;;;18.66;87.92;96095.06;2065596;28;20054;-57
2023/08/24 02:34:12;;;;;;;18.52;13.00;;;;;;;18.71;87.71;96099.97;2065560;28;20054;-57
2023/08/24 02:35:14;;;;;;;13.73;12.27;;;;;;;18.77;87.38;96101.34;2064827;28;20482;-56
2023/08/24 02:36:16;;;;;;;13.55;10.75;;;;;;;18.79;86.86;96102.03;2056714;28;20051;-57
2023/08/24 02:37:18;;;;;;;16.75;12.98;;;;;;;18.80;86.52;96101.09;2056478;28;20055;-57
2023/08/24 02:38:19;;;;;;;14.90;11.95;;;;;;;18.82;86.51;96099.16;2065474;28;20073;-57
2023/08/24 02:39:20;;;;;;;15.90;13.98;;;;;;;18.82;85.82;96099.16;2064180;28;20077;-57
2023/08/24 02:40:21;;;;;;;17.40;15.02;;;;;;;18.82;85.82;96101.78;2065004;28;20406;-57
2023/08/24 02:41:22;;;;;;;19.27;14.90;;;;;;;18.78;85.98;96095.09;2065465;28;20046;-57
2023/08/24 02:42:23;;;;;;;18.55;14.05;;;;;;;18.75;86.29;96103.25;2065152;28;20054;-56
2023/08/24 02:43:24;;;;;;;15.82;14.13;;;;;;;18.68;86.77;96093.19;2056800;28;20059;-56
2023/08/24 02:44:26;;;;;;;18.20;14.13;;;;;;;18.66;87.13;96094.25;2048708;29;20055;-56
2023/08/24 02:45:27;;;;;;;15.23;13.63;;;;;;;18.66;86.93;96100.34;2048918;28;20090;-56
2023/08/24 02:46:29;;;;;;;22.10;14.43;;;;;;;18.65;87.48;96092.56;2056778;28;20062;-56
2023/08/24 02:47:30;;;;;;;20.70;16.48;;;;;;;18.65;86.97;96098.66;2056884;28;20135;-56
2023/08/24 02:48:31;;;;;;;21.10;18.08;;;;;;;18.65;87.15;96100.44;2065345;28;20062;-56
2023/08/24 02:49:32;;;;;;;17.58;12.57;;;;;;;18.64;87.71;96091.72;2057535;28;20054;-56
2023/08/24 02:50:33;;;;;;;18.73;16.23;;;;;;;18.63;87.33;96087.44;2057888;28;20061;-56
2023/08/24 02:51:35;;;;;;;22.20;19.20;;;;;;;18.63;86.84;96097.09;2058142;28;20066;-56
2023/08/24 02:52:36;;;;;;;21.98;18.25;;;;;;;18.64;86.94;96090.91;2057920;28;20055;-57
2023/08/24 02:53:37;;;;;;;24.40;18.02;;;;;;;18.63;86.55;96100.59;2066975;28;20058;-56
2023/08/24 02:54:38;;;;;;;22.08;18.70;;;;;;;18.63;87.14;96094.47;2066850;28;20061;-57
2023/08/24 02:55:39;;;;;;;21.60;16.98;;;;;;;18.62;87.14;96091.00;2066252;28;20061;-57
2023/08/24 02:56:40;;;;;;;19.35;16.80;;;;;;;18.61;87.27;96089.34;2066908;28;20506;-57
2023/08/24 02:57:41;;;;;;;22.30;16.63;;;;;;;18.63;87.13;96089.19;2066805;28;20050;-57
2023/08/24 02:58:42;;;;;;;19.40;15.15;;;;;;;18.56;87.10;96070.44;2066498;28;20099;-56
2023/08/24 02:59:44;;;;;;;16.52;14.90;;;;;;;18.57;87.71;96081.78;2058262;28;20081;-56
2023/08/24 03:00:46;;;;;;;20.48;18.27;;;;;;;18.54;87.76;96082.88;2058314;28;20062;-57
2023/08/24 03:01:47;;;;;;;21.30;16.92;;;;;;;18.55;87.17;96081.06;2065349;28;20054;-57
2023/08/24 03:02:48;;;;;;;20.13;16.75;;;;;;;18.55;87.17;96081.94;2066221;28;20144;-57
2023/08/24 03:03:50;;;;;;;17.95;16.10;;;;;;;18.56;87.33;96083.59;2057789;28;20055;-57
2023/08/24 03:04:51;;;;;;;21.10;17.13;;;;;;;18.54;87.38;96085.50;2058140;28;20066;-57
2023/08/24 03:05:54;;;;;;;18.73;16.23;;;;;;;18.52;87.55;96079.50;2065647;28;20054;-57
2023/08/24 03:06:55;;;;;;;19.45;16.92;;;;;;;18.53;87.44;96083.84;2066149;28;20069;-57
2023/08/24 03:07:56;;;;;;;20.13;16.48;;;;;;;18.51;87.11;96081.31;2058281;28;20059;-57
2023/08/24 03:09:00;;;;;;;23.98;16.85;;;;;;;18.51;87.43;96091.84;2050025;29;20063;-57
2023/08/24 03:10:03;;;;;;;20.10;15.90;;;;;;;18.52;87.70;96077.75;2058149;28;20047;-57
2023/08/24 03:11:04;;;;;;;21.10;16.02;;;;;;;18.49;87.50;96082.38;2058158;28;20510;-56
2023/08/24 03:12:06;;;;;;;18.15;15.73;;;;;;;18.53;87.92;96081.22;2058066;28;20047;-57
2023/08/24 03:13:07;;;;;;;20.38;16.85;;;;;;;18.51;87.54;96085.75;2058130;28;20050;-56
2023/08/24 03:14:08;;;;;;;19.08;16.45;;;;;;;18.50;87.20;96086.72;2066500;28;20058;-57
2023/08/24 03:15:10;;;;;;;19.20;16.90;;;;;;;18.49;87.17;96082.38;2058097;28;20059;-57
2023/08/24 03:16:11;;;;;;;22.52;16.50;;;;;;;18.47;87.68;96087.78;2057389;28;20046;-57
2023/08/24 03:17:13;;;;;;;20.55;16.83;;;;;;;18.45;87.35;96087.06;2065589;28;20057;-57
2023/08/24 03:18:15;;;;;;;18.70;16.00;;;;;;;18.39;87.82;96071.75;2065606;28;20062;-57
2023/08/24 03:19:17;;;;;;;21.17;15.88;;;;;;;18.43;87.60;96082.88;2066685;28;20050;-57
2023/08/24 03:20:19;;;;;;;19.33;15.43;;;;;;;18.39;87.93;96074.41;2058073;28;20070;-57
2023/08/24 03:21:20;;;;;;;21.08;16.15;;;;;;;18.40;88.08;96078.69;2050095;28;20460;-57
2023/08/24 03:22:21;;;;;;;20.73;15.90;;;;;;;18.42;88.14;96086.47;2050015;29;20051;-57
2023/08/24 03:23:22;;;;;;;18.02;16.08;;;;;;;18.42;88.22;96089.09;2057606;28;20054;-57
2023/08/24 03:24:24;;;;;;;21.15;15.95;;;;;;;18.42;87.81;96095.19;2065298;28;20063;-56
2023/08/24 03:25:26;;;;;;;20.23;16.52;;;;;;;18.40;88.18;96086.56;2066682;28;20046;-57
2023/08/24 03:26:27;;;;;;;18.40;15.70;;;;;;;18.40;88.17;96089.19;2058087;28;20054;-57
2023/08/24 03:27:28;;;;;;;21.27;17.08;;;;;;;18.37;87.71;96088.59;2057911;28;20059;-57
2023/08/24 03:28:30;;;;;;;20.48;16.65;;;;;;;18.38;88.42;96087.66;2058097;28;20054;-57
2023/08/24 03:29:31;;;;;;;19.65;17.33;;;;;;;18.39;88.34;96087.53;2058157;28;20059;-57
2023/08/24 03:30:36;;;;;;;20.23;18.02;;;;;;;18.36;87.91;96085.13;2057871;28;20541;-57
2023/08/24 03:31:37;;;;;;;20.35;17.88;;;;;;;18.35;88.55;96090.50;2058397;28;20491;-57
2023/08/24 03:32:39;;;;;;;23.30;16.63;;;;;;;18.33;88.72;96088.00;2057240;28;20128;-57
2023/08/24 03:33:40;;;;;;;18.83;16.65;;;;;;;18.31;88.70;96089.91;2057819;28;20050;-57
2023/08/24 03:34:42;;;;;;;17.63;15.77;;;;;;;18.28;88.63;96087.50;2057327;28;20483;-57
2023/08/24 03:35:43;;;;;;;20.67;17.60;;;;;;;18.28;88.65;96093.63;2049844;29;20070;-57
2023/08/24 03:36:44;;;;;;;22.45;15.95;;;;;;;18.28;88.35;96096.25;2049735;28;20051;-57
2023/08/24 03:37:45;;;;;;;20.65;15.95;;;;;;;18.28;88.95;96091.00;2058175;28;20434;-56
2023/08/24 03:38:46;;;;;;;19.02;17.00;;;;;;;18.28;88.52;96088.38;2057571;28;20054;-57
2023/08/24 03:39:47;;;;;;;25.05;17.67;;;;;;;18.26;89.23;96085.00;2057554;28;20050;-57
2023/08/24 03:40:48;;;;;;;21.70;16.10;;;;;;;18.28;88.91;96093.63;2057043;28;20055;-56
2023/08/24 03:41:49;;;;;;;19.73;15.40;;;;;;;18.27;89.01;96080.59;2066557;28;20050;-57
2023/08/24 03:42:51;;;;;;;17.33;15.50;;;;;;;18.22;88.63;96075.66;2057767;28;20491;-57
2023/08/24 03:43:52;;;;;;;17.10;14.95;;;;;;;18.27;88.56;96085.84;2049792;28;20051;-56
2023/08/24 03:44:53;;;;;;;17.70;15.60;;;;;;;18.27;88.61;96085.84;2057750;28;20055;-57
2023/08/24 03:45:55;;;;;;;17.02;15.02;;;;;;;18.26;88.25;96090.25;2065878;28;20058;-56
2023/08/24 03:46:56;;;;;;;17.83;15.95;;;;;;;18.26;88.41;96087.63;2057813;28;20050;-57
2023/08/24 03:47:57;;;;;;;19.23;15.80;;;;;;;18.23;87.79;96077.38;2057934;28;20054;-57
2023/08/24 03:48:58;;;;;;;19.20;14.02;;;;;;;18.26;88.10;96085.00;2057838;28;20067;-56
2023/08/24 03:50:00;;;;;;;19.63;15.63;;;;;;;18.28;87.46;96083.09;2049612;29;20055;-57
2023/08/24 03:51:02;;;;;;;18.00;15.48;;;;;;;18.30;87.61;96078.53;2049481;28;20098;-57
2023/08/24 03:52:04;;;;;;;16.75;14.23;;;;;;;18.25;88.03;96074.59;2049751;28;20063;-56
2023/08/24 03:53:06;;;;;;;18.35;14.38;;;;;;;18.30;88.06;96085.59;2049753;29;20047;-57
2023/08/24 03:54:07;;;;;;;17.30;14.57;;;;;;;18.29;87.67;96083.94;2049843;28;20058;-56
2023/08/24 03:55:08;;;;;;;18.30;15.23;;;;;;;18.29;88.02;96089.19;2049712;28;20054;-57
2023/08/24 03:56:09;;;;;;;17.15;14.43;;;;;;;18.29;88.42;96083.94;2056957;28;20439;-57
2023/08/24 03:57:11;;;;;;;16.10;14.45;;;;;;;18.29;88.27;96091.81;2057865;28;20053;-57
2023/08/24 03:58:12;;;;;;;16.08;13.15;;;;;;;18.29;87.86;96087.41;2057709;28;20514;-57
2023/08/24 03:59:13;;;;;;;18.15;13.63;;;;;;;18.28;87.89;96092.75;2049733;29;20492;-57
2023/08/24 04:00:14;;;;;;;16.35;14.48;;;;;;;18.28;88.09;96088.38;2041727;28;20538;-57
2023/08/24 04:01:15;;;;;;;21.30;14.45;;;;;;;18.25;88.12;96085.13;2057003;28;20051;-57
2023/08/24 04:02:17;;;;;;;18.48;14.73;;;;;;;18.30;87.57;96088.22;2057473;28;20062;-57
2023/08/24 04:03:18;;;;;;;15.43;13.20;;;;;;;18.31;87.77;96089.91;2049687;28;20058;-57
2023/08/24 04:04:19;;;;;;;16.20;14.00;;;;;;;18.32;87.30;96093.38;2057404;28;20376;-57
2023/08/24 04:05:20;;;;;;;17.98;13.55;;;;;;;18.32;87.44;96090.75;2065331;28;20057;-57
2023/08/24 04:06:23;;;;;;;16.52;13.18;;;;;;;18.32;87.18;96086.31;2065708;28;20065;-57
2023/08/24 04:07:24;;;;;;;16.40;13.43;;;;;;;18.33;86.46;96092.41;2066136;28;20066;-57
2023/08/24 04:08:26;;;;;;;16.83;13.57;;;;;;;18.32;86.81;96086.31;2057741;28;20062;-57
2023/08/24 04:09:27;;;;;;;14.55;12.77;;;;;;;18.33;86.25;96089.78;2057681;28;20439;-57
2023/08/24 04:10:31;;;;;;;17.42;13.43;;;;;;;18.33;86.43;96093.25;2057291;28;20058;-57
2023/08/24 04:11:33;;;;;;;14.82;13.20;;;;;;;18.34;86.42;96088.84;2050276;28;20491;-57
2023/08/24 04:12:34;;;;;;;18.27;13.07;;;;;;;18.34;86.17;96094.09;2057657;28;20059;-57
2023/08/24 04:13:35;;;;;;;17.85;12.68;;;;;;;18.36;86.26;96092.19;2064931;28;20482;-57
2023/08/24 04:14:36;;;;;;;17.10;12.95;;;;;;;18.37;85.72;96093.88;2066130;28;20050;-57
2023/08/24 04:15:37;;;;;;;15.60;12.60;;;;;;;18.37;86.03;96085.97;2057002;28;20070;-57
2023/08/24 04:16:39;;;;;;;20.70;13.73;;;;;;;18.38;85.65;96087.66;2057879;28;20055;-57
2023/08/24 04:17:41;;;;;;;17.92;13.25;;;;;;;18.39;86.27;96100.69;2065980;28;20396;-57
2023/08/24 04:18:42;;;;;;;16.75;12.98;;;;;;;18.42;86.10;96091.72;2056893;28;20488;-57
2023/08/24 04:19:43;;;;;;;17.40;12.95;;;;;;;18.42;85.75;96096.97;2057509;28;20062;-57
2023/08/24 04:20:44;;;;;;;16.88;13.52;;;;;;;18.41;85.71;96095.28;2064916;28;20058;-57
2023/08/24 04:21:45;;;;;;;16.67;13.20;;;;;;;18.40;85.66;96094.47;2065768;28;20072;-57
2023/08/24 04:22:46;;;;;;;16.40;12.18;;;;;;;18.40;85.39;96093.63;2066149;28;20483;-57
2023/08/24 04:23:48;;;;;;;15.68;11.70;;;;;;;18.39;84.81;96089.31;2066014;28;20062;-57
2023/08/24 04:24:49;;;;;;;15.15;12.15;;;;;;;18.39;84.60;96090.16;2066275;28;20054;-57
2023/08/24 04:25:50;;;;;;;15.52;12.52;;;;;;;18.38;84.52;96087.66;2066344;28;20058;-57
2023/08/24 04:26:51;;;;;;;14.73;12.93;;;;;;;18.38;84.05;96085.84;2065536;28;20058;-57
2023/08/24 04:27:52;;;;;;;18.33;13.07;;;;;;;18.37;84.59;96085.97;2066127;28;20058;-57
2023/08/24 04:28:53;;;;;;;17.55;13.13;;;;;;;18.36;83.69;96082.50;2066043;28;20134;-57
2023/08/24 04:29:54;;;;;;;17.52;12.55;;;;;;;18.35;83.20;96077.38;2065494;28;20050;-57
2023/08/24 04:30:57;;;;;;;16.30;12.35;;;;;;;18.34;82.39;96081.78;2065678;28;20061;-57
2023/08/24 04:31:58;;;;;;;14.20;11.52;;;;;;;18.33;82.44;96076.66;2065705;28;20491;-57
2023/08/24 04:32:59;;;;;;;17.05;12.25;;;;;;;18.36;82.71;96076.41;2066099;28;20135;-57
2023/08/24 04:34:00;;;;;;;18.08;13.02;;;;;;;18.35;82.53;96080.81;2066042;28;20053;-57
2023/08/24 04:35:02;;;;;;;17.00;12.05;;;;;;;18.36;83.19;96086.91;2066257;28;20046;-57
2023/08/24 04:36:03;;;;;;;15.75;12.23;;;;;;;18.37;83.13;96084.19;2057077;28;20420;-57
2023/08/24 04:37:05;;;;;;;16.58;12.00;;;;;;;18.39;82.97;96092.81;2057194;28;20058;-56
2023/08/24 04:38:06;;;;;;;14.43;12.05;;;;;;;18.40;82.61;96085.75;2057417;28;20059;-57
2023/08/24 04:39:07;;;;;;;17.17;11.55;;;;;;;18.42;82.56;96084.66;2056970;28;20431;-57
2023/08/24 04:40:09;;;;;;;16.30;11.70;;;;;;;18.43;82.77;96078.44;2066009;28;20054;-57
2023/08/24 04:41:12;;;;;;;15.98;11.68;;;;;;;18.42;82.20;96084.66;2066193;28;20046;-57
2023/08/24 04:42:13;;;;;;;14.90;11.65;;;;;;;18.45;81.83;96087.06;2065464;28;20054;-57
2023/08/24 04:43:14;;;;;;;13.20;10.52;;;;;;;18.47;81.97;96087.78;2065928;28;20047;-57
2023/08/24 04:44:16;;;;;;;13.38;11.02;;;;;;;18.48;82.01;96093.88;2066143;28;20435;-57
2023/08/24 04:45:17;;;;;;;17.55;11.48;;;;;;;18.47;80.86;96082.53;2065962;28;20061;-57
2023/08/24 04:46:18;;;;;;;12.65;11.32;;;;;;;18.48;81.28;96080.72;2065182;28;20054;-57